sensor_id;sensor_type;location;lat;lon;timestamp;P1;P4;P2;P0;N10;N4;N25;N1;N05;TS
78521;SPS30;67819;51.972;5.678;2023-08-31T00:00:09;0.2;0.2;0.2;0.2;;;;1.0;47.0;
78521;SPS30;67819;51.972;5.678;2023-08-31T00:02:40;0.0;0.0;0.0;0.0;;;;1.0;47.0;
78521;SPS30;67819;51.972;5.678;2023-08-31T00:05:09;0.0;0.0;0.0;0.0;;;;1.0;47.0;
78521;SPS30;67819;51.972;5.678;2023-08-31T00:07:38;0.0;0.0;0.0;0.0;;;;1.0;47.0;
78521;SPS30;67819;51.972;5.678;2023-08-31T00:10:08;2.3;2.3;2.3;2.2;;;;1.0;47.0;
78521;SPS30;67819;51.972;5.678;2023-08-31T00:12:37;0.0;0.0;0.0;0.0;;;;1.0;47.0;
78521;SPS30;67819;51.972;5.678;2023-08-31T00:15:07;0.0;0.0;0.0;0.0;;;;1.0;47.0;
78521;SPS30;67819;51.972;5.678;2023-08-31T00:17:36;0.1;0.1;0.1;0.1;;;;1.0;46.0;
78521;SPS30;67819;51.972;5.678;2023-08-31T00:20:05;0.0;0.0;0.0;0.0;;;;1.0;46.0;
78521;SPS30;67819;51.972;5.678;2023-08-31T00:22:38;0.0;0.0;0.0;0.0;;;;1.0;47.0;
78521;SPS30;67819;51.972;5.678;2023-08-31T00:25:07;0.0;0.0;0.0;0.0;;;;1.0;48.0;
78521;SPS30;67819;51.972;5.678;2023-08-31T00:27:36;0.0;0.0;0.0;0.0;;;;1.0;48.0;
78521;SPS30;67819;51.972;5.678;2023-08-31T00:30:07;0.0;0.0;0.0;0.0;;;;1.0;48.0;
78521;SPS30;67819;51.972;5.678;2023-08-31T00:32:37;0.2;0.2;0.2;0.1;;;;1.0;48.0;
78521;SPS30;67819;51.972;5.678;2023-08-31T00:35:09;0.0;0.0;0.0;0.0;;;;1.0;47.0;
78521;SPS30;67819;51.972;5.678;2023-08-31T00:37:38;0.0;0.0;0.0;0.0;;;;1.0;46.0;
78521;SPS30;67819;51.972;5.678;2023-08-31T00:40:07;0.2;0.2;0.2;0.2;;;;1.0;46.0;
78521;SPS30;67819;51.972;5.678;2023-08-31T00:42:39;0.0;0.0;0.0;0.0;;;;1.0;46.0;
78521;SPS30;67819;51.972;5.678;2023-08-31T00:45:08;0.2;0.2;0.2;0.1;;;;1.0;45.0;
78521;SPS30;67819;51.972;5.678;2023-08-31T00:47:37;0.0;0.0;0.0;0.0;;;;1.0;45.0;
78521;SPS30;67819;51.972;5.678;2023-08-31T00:50:07;0.0;0.0;0.0;0.0;;;;1.0;44.0;
78521;SPS30;67819;51.972;5.678;2023-08-31T00:52:36;0.4;0.4;0.4;0.3;;;;1.0;44.0;
78521;SPS30;67819;51.972;5.678;2023-08-31T00:55:05;0.0;0.0;0.0;0.0;;;;1.0;44.0;
78521;SPS30;67819;51.972;5.678;2023-08-31T00:57:35;0.8;0.8;0.8;0.7;;;;1.0;45.0;
78521;SPS30;67819;51.972;5.678;2023-08-31T01:00:04;0.1;0.1;0.1;0.1;;;;1.0;45.0;
78521;SPS30;67819;51.972;5.678;2023-08-31T01:02:37;0.0;0.0;0.0;0.0;;;;1.0;46.0;
78521;SPS30;67819;51.972;5.678;2023-08-31T01:05:17;0.4;0.4;0.4;0.3;;;;1.0;47.0;
78521;SPS30;67819;51.972;5.678;2023-08-31T01:07:59;0.2;0.2;0.1;0.1;;;;1.0;47.0;
78521;SPS30;67819;51.972;5.678;2023-08-31T01:10:37;0.4;0.4;0.4;0.4;;;;1.0;48.0;
78521;SPS30;67819;51.972;5.678;2023-08-31T01:13:18;0.0;0.0;0.0;0.0;;;;1.0;48.0;
78521;SPS30;67819;51.972;5.678;2023-08-31T01:15:52;0.0;0.0;0.0;0.0;;;;1.0;50.0;
78521;SPS30;67819;51.972;5.678;2023-08-31T01:18:24;0.0;0.0;0.0;0.0;;;;1.0;53.0;
78521;SPS30;67819;51.972;5.678;2023-08-31T01:21:01;0.0;0.0;0.0;0.0;;;;1.0;54.0;
78521;SPS30;67819;51.972;5.678;2023-08-31T01:24:09;0.0;0.0;0.0;0.0;;;;1.0;54.0;
78521;SPS30;67819;51.972;5.678;2023-08-31T01:26:38;0.2;0.2;0.2;0.2;;;;1.0;56.0;
78521;SPS30;67819;51.972;5.678;2023-08-31T01:29:09;0.2;0.2;0.2;0.2;;;;1.0;56.0;
78521;SPS30;67819;51.972;5.678;2023-08-31T01:31:43;0.0;0.0;0.0;0.0;;;;1.0;57.0;
78521;SPS30;67819;51.972;5.678;2023-08-31T01:34:12;0.0;0.0;0.0;0.0;;;;1.0;60.0;
78521;SPS30;67819;51.972;5.678;2023-08-31T01:36:41;0.1;0.1;0.1;0.1;;;;1.0;62.0;
78521;SPS30;67819;51.972;5.678;2023-08-31T01:39:17;0.0;0.0;0.0;0.0;;;;1.0;65.0;
78521;SPS30;67819;51.972;5.678;2023-08-31T01:41:58;0.3;0.3;0.3;0.3;;;;1.0;68.0;
78521;SPS30;67819;51.972;5.678;2023-08-31T01:44:32;0.0;0.0;0.0;0.0;;;;1.0;71.0;
78521;SPS30;67819;51.972;5.678;2023-08-31T01:47:04;0.3;0.3;0.3;0.2;;;;1.0;76.0;
78521;SPS30;67819;51.972;5.678;2023-08-31T01:49:37;0.0;0.0;0.0;0.0;;;;1.0;80.0;
78521;SPS30;67819;51.972;5.678;2023-08-31T01:52:07;0.0;0.0;0.0;0.0;;;;1.0;86.0;
78521;SPS30;67819;51.972;5.678;2023-08-31T01:54:36;0.0;0.0;0.0;0.0;;;;1.0;87.0;
78521;SPS30;67819;51.972;5.678;2023-08-31T01:57:05;0.1;0.1;0.1;0.1;;;;1.0;88.0;
78521;SPS30;67819;51.972;5.678;2023-08-31T01:59:34;0.0;0.0;0.0;0.0;;;;1.0;88.0;
78521;SPS30;67819;51.972;5.678;2023-08-31T02:02:03;0.0;0.0;0.0;0.0;;;;1.0;88.0;
78521;SPS30;67819;51.972;5.678;2023-08-31T02:04:31;0.6;0.6;0.6;0.6;;;;1.0;87.0;
78521;SPS30;67819;51.972;5.678;2023-08-31T02:07:00;0.2;0.2;0.2;0.2;;;;1.0;86.0;
78521;SPS30;67819;51.972;5.678;2023-08-31T02:09:29;0.4;0.4;0.4;0.4;;;;1.0;84.0;
78521;SPS30;67819;51.972;5.678;2023-08-31T02:11:57;0.1;0.1;0.1;0.1;;;;1.0;79.0;
78521;SPS30;67819;51.972;5.678;2023-08-31T02:14:26;0.2;0.2;0.2;0.2;;;;1.0;75.0;
78521;SPS30;67819;51.972;5.678;2023-08-31T02:16:54;0.2;0.2;0.2;0.2;;;;1.0;74.0;
78521;SPS30;67819;51.972;5.678;2023-08-31T02:19:23;0.1;0.1;0.1;0.1;;;;1.0;74.0;
78521;SPS30;67819;51.972;5.678;2023-08-31T02:21:53;0.0;0.0;0.0;0.0;;;;1.0;74.0;
78521;SPS30;67819;51.972;5.678;2023-08-31T02:24:22;0.3;0.3;0.3;0.2;;;;1.0;75.0;
78521;SPS30;67819;51.972;5.678;2023-08-31T02:26:52;0.2;0.2;0.2;0.2;;;;1.0;75.0;
78521;SPS30;67819;51.972;5.678;2023-08-31T02:29:21;0.0;0.0;0.0;0.0;;;;1.0;76.0;
78521;SPS30;67819;51.972;5.678;2023-08-31T02:31:49;0.4;0.4;0.4;0.4;;;;1.0;76.0;
78521;SPS30;67819;51.972;5.678;2023-08-31T02:34:18;0.1;0.1;0.1;0.1;;;;1.0;76.0;
78521;SPS30;67819;51.972;5.678;2023-08-31T02:36:48;0.0;0.0;0.0;0.0;;;;1.0;75.0;
78521;SPS30;67819;51.972;5.678;2023-08-31T02:39:17;0.0;0.0;0.0;0.0;;;;1.0;75.0;
78521;SPS30;67819;51.972;5.678;2023-08-31T02:41:46;0.6;0.6;0.6;0.6;;;;1.0;75.0;
78521;SPS30;67819;51.972;5.678;2023-08-31T02:44:14;0.2;0.2;0.2;0.2;;;;1.0;75.0;
78521;SPS30;67819;51.972;5.678;2023-08-31T02:46:45;0.0;0.0;0.0;0.0;;;;1.0;75.0;
78521;SPS30;67819;51.972;5.678;2023-08-31T02:49:14;0.2;0.2;0.2;0.1;;;;1.0;75.0;
78521;SPS30;67819;51.972;5.678;2023-08-31T02:51:42;0.2;0.2;0.2;0.2;;;;1.0;74.0;
78521;SPS30;67819;51.972;5.678;2023-08-31T02:54:11;0.1;0.1;0.1;0.1;;;;1.0;73.0;
78521;SPS30;67819;51.972;5.678;2023-08-31T02:56:39;0.0;0.0;0.0;0.0;;;;1.0;72.0;
78521;SPS30;67819;51.972;5.678;2023-08-31T02:59:08;0.0;0.0;0.0;0.0;;;;1.0;72.0;
78521;SPS30;67819;51.972;5.678;2023-08-31T03:01:36;4.7;4.7;4.7;4.4;;;;1.0;75.0;
78521;SPS30;67819;51.972;5.678;2023-08-31T03:04:05;0.4;0.4;0.4;0.4;;;;1.0;76.0;
78521;SPS30;67819;51.972;5.678;2023-08-31T03:06:34;0.0;0.0;0.0;0.0;;;;1.0;77.0;
78521;SPS30;67819;51.972;5.678;2023-08-31T03:09:02;0.0;0.0;0.0;0.0;;;;1.0;78.0;
78521;SPS30;67819;51.972;5.678;2023-08-31T03:11:34;0.0;0.0;0.0;0.0;;;;1.0;80.0;
78521;SPS30;67819;51.972;5.678;2023-08-31T03:14:02;0.0;0.0;0.0;0.0;;;;1.0;81.0;
78521;SPS30;67819;51.972;5.678;2023-08-31T03:16:31;0.0;0.0;0.0;0.0;;;;1.0;82.0;
78521;SPS30;67819;51.972;5.678;2023-08-31T03:18:59;0.0;0.0;0.0;0.0;;;;1.0;84.0;
78521;SPS30;67819;51.972;5.678;2023-08-31T03:21:28;0.0;0.0;0.0;0.0;;;;1.0;84.0;
78521;SPS30;67819;51.972;5.678;2023-08-31T03:23:56;0.0;0.0;0.0;0.0;;;;1.0;84.0;
78521;SPS30;67819;51.972;5.678;2023-08-31T03:26:25;0.5;0.5;0.5;0.5;;;;1.0;84.0;
78521;SPS30;67819;51.972;5.678;2023-08-31T03:28:53;0.0;0.0;0.0;0.0;;;;1.0;83.0;
78521;SPS30;67819;51.972;5.678;2023-08-31T03:31:22;0.0;0.0;0.0;0.0;;;;1.0;81.0;
78521;SPS30;67819;51.972;5.678;2023-08-31T03:33:51;0.0;0.0;0.0;0.0;;;;1.0;79.0;
78521;SPS30;67819;51.972;5.678;2023-08-31T03:36:22;0.4;0.4;0.4;0.4;;;;1.0;76.0;
78521;SPS30;67819;51.972;5.678;2023-08-31T03:38:50;0.2;0.2;0.2;0.2;;;;1.0;74.0;
78521;SPS30;67819;51.972;5.678;2023-08-31T03:41:19;0.0;0.0;0.0;0.0;;;;1.0;73.0;
78521;SPS30;67819;51.972;5.678;2023-08-31T03:43:47;0.0;0.0;0.0;0.0;;;;1.0;74.0;
78521;SPS30;67819;51.972;5.678;2023-08-31T03:46:16;0.0;0.0;0.0;0.0;;;;1.0;75.0;
78521;SPS30;67819;51.972;5.678;2023-08-31T03:48:44;0.0;0.0;0.0;0.0;;;;1.0;77.0;
78521;SPS30;67819;51.972;5.678;2023-08-31T03:51:13;0.0;0.0;0.0;0.0;;;;1.0;77.0;
78521;SPS30;67819;51.972;5.678;2023-08-31T03:53:41;0.0;0.0;0.0;0.0;;;;1.0;75.0;
78521;SPS30;67819;51.972;5.678;2023-08-31T03:56:11;0.0;0.0;0.0;0.0;;;;1.0;71.0;
78521;SPS30;67819;51.972;5.678;2023-08-31T03:58:39;0.9;0.9;0.9;0.9;;;;1.0;70.0;
78521;SPS30;67819;51.972;5.678;2023-08-31T04:01:08;0.4;0.4;0.4;0.4;;;;1.0;69.0;
78521;SPS30;67819;51.972;5.678;2023-08-31T04:03:36;0.0;0.0;0.0;0.0;;;;1.0;69.0;
78521;SPS30;67819;51.972;5.678;2023-08-31T04:06:05;0.0;0.0;0.0;0.0;;;;1.0;70.0;
78521;SPS30;67819;51.972;5.678;2023-08-31T04:08:34;0.2;0.2;0.2;0.2;;;;1.0;70.0;
78521;SPS30;67819;51.972;5.678;2023-08-31T04:11:02;0.3;0.3;0.3;0.3;;;;1.0;70.0;
78521;SPS30;67819;51.972;5.678;2023-08-31T04:13:31;0.2;0.2;0.2;0.2;;;;1.0;70.0;
78521;SPS30;67819;51.972;5.678;2023-08-31T04:15:59;0.0;0.0;0.0;0.0;;;;1.0;70.0;
78521;SPS30;67819;51.972;5.678;2023-08-31T04:18:28;0.0;0.0;0.0;0.0;;;;1.0;71.0;
78521;SPS30;67819;51.972;5.678;2023-08-31T04:20:56;0.1;0.1;0.1;0.0;;;;1.0;70.0;
78521;SPS30;67819;51.972;5.678;2023-08-31T04:23:29;0.2;0.2;0.2;0.2;;;;1.0;70.0;
78521;SPS30;67819;51.972;5.678;2023-08-31T04:25:58;0.1;0.1;0.1;0.1;;;;2.0;71.0;
78521;SPS30;67819;51.972;5.678;2023-08-31T04:28:34;0.0;0.0;0.0;0.0;;;;2.0;74.0;
78521;SPS30;67819;51.972;5.678;2023-08-31T04:31:05;0.0;0.0;0.0;0.0;;;;2.0;76.0;
78521;SPS30;67819;51.972;5.678;2023-08-31T04:33:36;0.2;0.2;0.2;0.2;;;;2.0;77.0;
78521;SPS30;67819;51.972;5.678;2023-08-31T04:36:06;0.3;0.3;0.3;0.3;;;;2.0;78.0;
78521;SPS30;67819;51.972;5.678;2023-08-31T04:38:35;0.5;0.5;0.5;0.5;;;;2.0;78.0;
78521;SPS30;67819;51.972;5.678;2023-08-31T04:41:03;0.9;0.9;0.9;0.8;;;;2.0;78.0;
78521;SPS30;67819;51.972;5.678;2023-08-31T04:43:32;0.1;0.1;0.1;0.1;;;;2.0;78.0;
78521;SPS30;67819;51.972;5.678;2023-08-31T04:46:01;0.5;0.5;0.5;0.5;;;;2.0;80.0;
78521;SPS30;67819;51.972;5.678;2023-08-31T04:48:30;0.1;0.1;0.1;0.1;;;;2.0;81.0;
78521;SPS30;67819;51.972;5.678;2023-08-31T04:50:58;0.4;0.4;0.4;0.4;;;;2.0;84.0;
78521;SPS30;67819;51.972;5.678;2023-08-31T04:53:27;0.7;0.7;0.7;0.6;;;;2.0;87.0;
78521;SPS30;67819;51.972;5.678;2023-08-31T04:55:56;0.4;0.4;0.4;0.4;;;;2.0;92.0;
78521;SPS30;67819;51.972;5.678;2023-08-31T04:58:24;0.5;0.5;0.5;0.5;;;;2.0;98.0;
78521;SPS30;67819;51.972;5.678;2023-08-31T05:00:53;0.3;0.3;0.3;0.3;;;;2.0;101.0;
78521;SPS30;67819;51.972;5.678;2023-08-31T05:03:23;0.9;0.9;0.9;0.8;;;;2.0;109.0;
78521;SPS30;67819;51.972;5.678;2023-08-31T05:05:52;0.4;0.4;0.4;0.4;;;;2.0;111.0;
78521;SPS30;67819;51.972;5.678;2023-08-31T05:08:21;2.6;2.6;2.6;2.5;;;;2.0;116.0;
78521;SPS30;67819;51.972;5.678;2023-08-31T05:10:49;0.5;0.5;0.5;0.5;;;;2.0;116.0;
78521;SPS30;67819;51.972;5.678;2023-08-31T05:13:18;0.6;0.6;0.6;0.6;;;;2.0;114.0;
78521;SPS30;67819;51.972;5.678;2023-08-31T05:15:46;0.6;0.6;0.6;0.5;;;;2.0;113.0;
78521;SPS30;67819;51.972;5.678;2023-08-31T05:18:15;0.2;0.2;0.2;0.2;;;;2.0;111.0;
78521;SPS30;67819;51.972;5.678;2023-08-31T05:20:46;0.4;0.4;0.4;0.3;;;;2.0;110.0;
78521;SPS30;67819;51.972;5.678;2023-08-31T05:23:14;1.3;1.3;1.3;1.3;;;;2.0;108.0;
78521;SPS30;67819;51.972;5.678;2023-08-31T05:25:43;1.0;1.0;1.0;1.0;;;;2.0;108.0;
78521;SPS30;67819;51.972;5.678;2023-08-31T05:28:12;0.1;0.1;0.1;0.1;;;;2.0;107.0;
78521;SPS30;67819;51.972;5.678;2023-08-31T05:30:48;0.7;0.7;0.7;0.6;;;;2.0;107.0;
78521;SPS30;67819;51.972;5.678;2023-08-31T05:33:17;0.8;0.8;0.8;0.8;;;;2.0;107.0;
78521;SPS30;67819;51.972;5.678;2023-08-31T05:35:48;0.0;0.0;0.0;0.0;;;;2.0;108.0;
78521;SPS30;67819;51.972;5.678;2023-08-31T05:38:17;0.8;0.8;0.8;0.8;;;;2.0;108.0;
78521;SPS30;67819;51.972;5.678;2023-08-31T05:40:45;0.2;0.2;0.2;0.2;;;;2.0;108.0;
78521;SPS30;67819;51.972;5.678;2023-08-31T05:43:14;0.5;0.5;0.5;0.5;;;;2.0;108.0;
78521;SPS30;67819;51.972;5.678;2023-08-31T05:45:44;0.5;0.5;0.5;0.5;;;;2.0;107.0;
78521;SPS30;67819;51.972;5.678;2023-08-31T05:48:12;0.1;0.1;0.1;0.1;;;;2.0;107.0;
78521;SPS30;67819;51.972;5.678;2023-08-31T05:50:41;0.2;0.2;0.2;0.2;;;;2.0;105.0;
78521;SPS30;67819;51.972;5.678;2023-08-31T05:53:10;0.7;0.7;0.7;0.7;;;;2.0;104.0;
78521;SPS30;67819;51.972;5.678;2023-08-31T05:55:38;0.1;0.1;0.1;0.1;;;;2.0;103.0;
78521;SPS30;67819;51.972;5.678;2023-08-31T05:58:07;0.2;0.2;0.2;0.2;;;;2.0;103.0;
78521;SPS30;67819;51.972;5.678;2023-08-31T06:00:35;1.3;1.3;1.3;1.2;;;;2.0;101.0;
78521;SPS30;67819;51.972;5.678;2023-08-31T06:03:04;0.8;0.8;0.8;0.8;;;;2.0;99.0;
78521;SPS30;67819;51.972;5.678;2023-08-31T06:05:33;0.6;0.6;0.6;0.6;;;;2.0;98.0;
78521;SPS30;67819;51.972;5.678;2023-08-31T06:08:02;1.1;1.1;1.1;1.1;;;;2.0;99.0;
78521;SPS30;67819;51.972;5.678;2023-08-31T06:10:30;0.3;0.3;0.3;0.3;;;;2.0;102.0;
78521;SPS30;67819;51.972;5.678;2023-08-31T06:13:01;0.6;0.6;0.6;0.6;;;;2.0;107.0;
78521;SPS30;67819;51.972;5.678;2023-08-31T06:15:29;0.2;0.2;0.2;0.2;;;;2.0;116.0;
78521;SPS30;67819;51.972;5.678;2023-08-31T06:17:58;0.4;0.4;0.4;0.4;;;;2.0;121.0;
78521;SPS30;67819;51.972;5.678;2023-08-31T06:20:26;1.7;1.7;1.7;1.6;;;;2.0;123.0;
78521;SPS30;67819;51.972;5.678;2023-08-31T06:22:55;0.4;0.4;0.4;0.4;;;;2.0;129.0;
78521;SPS30;67819;51.972;5.678;2023-08-31T06:25:23;1.1;1.1;1.1;1.0;;;;2.0;133.0;
78521;SPS30;67819;51.972;5.678;2023-08-31T06:27:52;0.1;0.1;0.1;0.1;;;;2.0;135.0;
78521;SPS30;67819;51.972;5.678;2023-08-31T06:30:20;1.0;1.0;1.0;1.0;;;;2.0;136.0;
78521;SPS30;67819;51.972;5.678;2023-08-31T06:32:49;0.1;0.1;0.1;0.1;;;;2.0;135.0;
78521;SPS30;67819;51.972;5.678;2023-08-31T06:35:18;0.3;0.3;0.3;0.3;;;;2.0;136.0;
78521;SPS30;67819;51.972;5.678;2023-08-31T06:37:47;0.2;0.2;0.2;0.2;;;;2.0;141.0;
78521;SPS30;67819;51.972;5.678;2023-08-31T06:40:18;0.0;0.0;0.0;0.0;;;;2.0;146.0;
78521;SPS30;67819;51.972;5.678;2023-08-31T06:42:46;0.3;0.3;0.3;0.3;;;;2.0;146.0;
78521;SPS30;67819;51.972;5.678;2023-08-31T06:45:15;0.3;0.3;0.3;0.2;;;;2.0;144.0;
78521;SPS30;67819;51.972;5.678;2023-08-31T06:47:43;0.8;0.8;0.8;0.7;;;;2.0;143.0;
78521;SPS30;67819;51.972;5.678;2023-08-31T06:50:12;0.1;0.1;0.1;0.1;;;;2.0;143.0;
78521;SPS30;67819;51.972;5.678;2023-08-31T06:52:40;1.0;1.0;1.0;0.9;;;;2.0;142.0;
78521;SPS30;67819;51.972;5.678;2023-08-31T06:55:12;0.6;0.6;0.6;0.6;;;;2.0;143.0;
78521;SPS30;67819;51.972;5.678;2023-08-31T06:57:41;1.0;1.0;1.0;0.9;;;;2.0;142.0;
78521;SPS30;67819;51.972;5.678;2023-08-31T07:00:10;0.1;0.1;0.1;0.1;;;;2.0;142.0;
78521;SPS30;67819;51.972;5.678;2023-08-31T07:02:40;0.7;0.7;0.7;0.6;;;;2.0;142.0;
78521;SPS30;67819;51.972;5.678;2023-08-31T07:05:09;0.1;0.1;0.1;0.1;;;;2.0;137.0;
78521;SPS30;67819;51.972;5.678;2023-08-31T07:07:39;1.6;1.6;1.6;1.5;;;;3.0;137.0;
78521;SPS30;67819;51.972;5.678;2023-08-31T07:10:09;1.1;1.1;1.1;1.1;;;;3.0;135.0;
78521;SPS30;67819;51.972;5.678;2023-08-31T07:12:38;0.4;0.4;0.4;0.4;;;;3.0;132.0;
78521;SPS30;67819;51.972;5.678;2023-08-31T07:15:08;0.1;0.1;0.1;0.1;;;;3.0;132.0;
78521;SPS30;67819;51.972;5.678;2023-08-31T07:17:37;0.3;0.3;0.3;0.3;;;;3.0;133.0;
78521;SPS30;67819;51.972;5.678;2023-08-31T07:20:06;0.0;0.0;0.0;0.0;;;;3.0;135.0;
78521;SPS30;67819;51.972;5.678;2023-08-31T07:22:35;0.2;0.2;0.2;0.2;;;;3.0;141.0;
78521;SPS30;67819;51.972;5.678;2023-08-31T07:25:04;0.1;0.1;0.1;0.1;;;;3.0;143.0;
78521;SPS30;67819;51.972;5.678;2023-08-31T07:27:33;0.1;0.1;0.1;0.1;;;;3.0;143.0;
78521;SPS30;67819;51.972;5.678;2023-08-31T07:30:04;0.3;0.3;0.3;0.2;;;;3.0;143.0;
78521;SPS30;67819;51.972;5.678;2023-08-31T07:32:34;0.4;0.4;0.4;0.4;;;;3.0;142.0;
78521;SPS30;67819;51.972;5.678;2023-08-31T07:35:04;0.2;0.2;0.2;0.2;;;;2.0;137.0;
78521;SPS30;67819;51.972;5.678;2023-08-31T07:37:33;0.6;0.6;0.6;0.6;;;;2.0;131.0;
78521;SPS30;67819;51.972;5.678;2023-08-31T07:40:03;0.1;0.1;0.1;0.1;;;;2.0;129.0;
78521;SPS30;67819;51.972;5.678;2023-08-31T07:42:36;0.2;0.2;0.2;0.2;;;;2.0;129.0;
78521;SPS30;67819;51.972;5.678;2023-08-31T07:45:05;0.5;0.5;0.5;0.5;;;;2.0;130.0;
78521;SPS30;67819;51.972;5.678;2023-08-31T07:47:34;0.0;0.0;0.0;0.0;;;;2.0;131.0;
78521;SPS30;67819;51.972;5.678;2023-08-31T07:50:04;0.0;0.0;0.0;0.0;;;;2.0;135.0;
78521;SPS30;67819;51.972;5.678;2023-08-31T07:52:34;0.0;0.0;0.0;0.0;;;;2.0;142.0;
78521;SPS30;67819;51.972;5.678;2023-08-31T07:55:03;0.2;0.2;0.2;0.2;;;;2.0;150.0;
78521;SPS30;67819;51.972;5.678;2023-08-31T07:57:32;0.0;0.0;0.0;0.0;;;;2.0;153.0;
78521;SPS30;67819;51.972;5.678;2023-08-31T08:00:01;0.0;0.0;0.0;0.0;;;;2.0;152.0;
78521;SPS30;67819;51.972;5.678;2023-08-31T08:02:30;0.1;0.1;0.1;0.1;;;;2.0;151.0;
78521;SPS30;67819;51.972;5.678;2023-08-31T08:04:58;0.1;0.1;0.1;0.1;;;;2.0;150.0;
78521;SPS30;67819;51.972;5.678;2023-08-31T08:07:27;0.6;0.6;0.6;0.6;;;;2.0;152.0;
78521;SPS30;67819;51.972;5.678;2023-08-31T08:09:55;0.0;0.0;0.0;0.0;;;;2.0;153.0;
78521;SPS30;67819;51.972;5.678;2023-08-31T08:12:24;0.0;0.0;0.0;0.0;;;;2.0;157.0;
78521;SPS30;67819;51.972;5.678;2023-08-31T08:14:53;0.7;0.7;0.7;0.7;;;;2.0;161.0;
78521;SPS30;67819;51.972;5.678;2023-08-31T08:17:22;0.2;0.2;0.2;0.2;;;;2.0;160.0;
78521;SPS30;67819;51.972;5.678;2023-08-31T08:19:50;0.2;0.2;0.2;0.2;;;;2.0;160.0;
78521;SPS30;67819;51.972;5.678;2023-08-31T08:22:19;0.1;0.1;0.1;0.1;;;;2.0;162.0;
78521;SPS30;67819;51.972;5.678;2023-08-31T08:24:47;0.5;0.5;0.5;0.5;;;;2.0;166.0;
78521;SPS30;67819;51.972;5.678;2023-08-31T08:27:16;0.1;0.1;0.1;0.1;;;;2.0;168.0;
78521;SPS30;67819;51.972;5.678;2023-08-31T08:29:46;0.0;0.0;0.0;0.0;;;;2.0;173.0;
78521;SPS30;67819;51.972;5.678;2023-08-31T08:32:15;0.0;0.0;0.0;0.0;;;;2.0;174.0;
78521;SPS30;67819;51.972;5.678;2023-08-31T08:34:45;0.3;0.3;0.3;0.3;;;;2.0;177.0;
78521;SPS30;67819;51.972;5.678;2023-08-31T08:37:14;0.1;0.1;0.1;0.1;;;;2.0;181.0;
78521;SPS30;67819;51.972;5.678;2023-08-31T08:39:42;0.1;0.1;0.1;0.1;;;;2.0;185.0;
78521;SPS30;67819;51.972;5.678;2023-08-31T08:42:11;0.1;0.1;0.1;0.1;;;;2.0;185.0;
78521;SPS30;67819;51.972;5.678;2023-08-31T08:44:40;0.8;0.8;0.8;0.7;;;;2.0;190.0;
78521;SPS30;67819;51.972;5.678;2023-08-31T08:47:11;1.0;1.0;1.0;0.9;;;;2.0;196.0;
78521;SPS30;67819;51.972;5.678;2023-08-31T08:49:40;0.2;0.2;0.2;0.2;;;;2.0;197.0;
78521;SPS30;67819;51.972;5.678;2023-08-31T08:52:10;0.0;0.0;0.0;0.0;;;;2.0;202.0;
78521;SPS30;67819;51.972;5.678;2023-08-31T08:54:40;0.1;0.1;0.1;0.1;;;;2.0;202.0;
78521;SPS30;67819;51.972;5.678;2023-08-31T08:57:08;0.1;0.1;0.1;0.1;;;;2.0;199.0;
78521;SPS30;67819;51.972;5.678;2023-08-31T08:59:37;0.0;0.0;0.0;0.0;;;;2.0;199.0;
78521;SPS30;67819;51.972;5.678;2023-08-31T09:02:08;0.0;0.0;0.0;0.0;;;;2.0;199.0;
78521;SPS30;67819;51.972;5.678;2023-08-31T09:04:38;0.0;0.0;0.0;0.0;;;;2.0;195.0;
78521;SPS30;67819;51.972;5.678;2023-08-31T09:07:09;0.0;0.0;0.0;0.0;;;;2.0;192.0;
78521;SPS30;67819;51.972;5.678;2023-08-31T09:09:49;0.2;0.2;0.2;0.2;;;;2.0;189.0;
78521;SPS30;67819;51.972;5.678;2023-08-31T09:12:19;0.2;0.2;0.2;0.1;;;;2.0;188.0;
78521;SPS30;67819;51.972;5.678;2023-08-31T09:14:59;0.1;0.1;0.1;0.1;;;;2.0;178.0;
78521;SPS30;67819;51.972;5.678;2023-08-31T09:17:40;0.0;0.0;0.0;0.0;;;;2.0;177.0;
78521;SPS30;67819;51.972;5.678;2023-08-31T09:20:12;1.1;1.1;1.1;1.1;;;;2.0;168.0;
78521;SPS30;67819;51.972;5.678;2023-08-31T09:22:43;0.2;0.2;0.2;0.1;;;;2.0;122.0;
78521;SPS30;67819;51.972;5.678;2023-08-31T09:25:13;0.0;0.0;0.0;0.0;;;;2.0;132.0;
78521;SPS30;67819;51.972;5.678;2023-08-31T09:27:41;0.1;0.1;0.1;0.1;;;;2.0;141.0;
78521;SPS30;67819;51.972;5.678;2023-08-31T09:30:12;0.2;0.2;0.2;0.2;;;;2.0;141.0;
78521;SPS30;67819;51.972;5.678;2023-08-31T09:32:41;0.3;0.3;0.3;0.2;;;;2.0;137.0;
78521;SPS30;67819;51.972;5.678;2023-08-31T09:35:10;0.5;0.5;0.5;0.5;;;;2.0;130.0;
78521;SPS30;67819;51.972;5.678;2023-08-31T09:37:39;0.7;0.7;0.7;0.7;;;;2.0;125.0;
78521;SPS30;67819;51.972;5.678;2023-08-31T09:40:08;0.2;0.2;0.2;0.2;;;;2.0;128.0;
78521;SPS30;67819;51.972;5.678;2023-08-31T09:42:37;0.0;0.0;0.0;0.0;;;;2.0;132.0;
78521;SPS30;67819;51.972;5.678;2023-08-31T09:45:07;0.5;0.5;0.5;0.5;;;;2.0;144.0;
78521;SPS30;67819;51.972;5.678;2023-08-31T09:47:36;0.6;0.6;0.6;0.6;;;;2.0;139.0;
78521;SPS30;67819;51.972;5.678;2023-08-31T09:50:07;0.6;0.6;0.6;0.5;;;;2.0;128.0;
78521;SPS30;67819;51.972;5.678;2023-08-31T09:52:37;0.1;0.1;0.1;0.1;;;;2.0;125.0;
78521;SPS30;67819;51.972;5.678;2023-08-31T09:55:08;0.1;0.1;0.1;0.1;;;;2.0;128.0;
78521;SPS30;67819;51.972;5.678;2023-08-31T09:57:37;0.3;0.3;0.3;0.3;;;;2.0;118.0;
78521;SPS30;67819;51.972;5.678;2023-08-31T10:00:08;0.0;0.0;0.0;0.0;;;;2.0;119.0;
78521;SPS30;67819;51.972;5.678;2023-08-31T10:02:41;0.4;0.4;0.4;0.4;;;;2.0;137.0;
78521;SPS30;67819;51.972;5.678;2023-08-31T10:05:13;0.1;0.1;0.1;0.1;;;;2.0;147.0;
78521;SPS30;67819;51.972;5.678;2023-08-31T10:07:43;0.0;0.0;0.0;0.0;;;;2.0;154.0;
78521;SPS30;67819;51.972;5.678;2023-08-31T10:10:14;0.0;0.0;0.0;0.0;;;;2.0;155.0;
78521;SPS30;67819;51.972;5.678;2023-08-31T10:12:43;0.6;0.6;0.6;0.6;;;;2.0;131.0;
78521;SPS30;67819;51.972;5.678;2023-08-31T10:15:13;1.0;1.0;1.0;1.0;;;;2.0;135.0;
78521;SPS30;67819;51.972;5.678;2023-08-31T10:17:43;0.1;0.1;0.1;0.1;;;;2.0;137.0;
78521;SPS30;67819;51.972;5.678;2023-08-31T10:20:13;0.2;0.2;0.2;0.2;;;;2.0;131.0;
78521;SPS30;67819;51.972;5.678;2023-08-31T10:22:44;0.5;0.5;0.5;0.5;;;;2.0;123.0;
78521;SPS30;67819;51.972;5.678;2023-08-31T10:25:13;0.1;0.1;0.1;0.1;;;;2.0;126.0;
78521;SPS30;67819;51.972;5.678;2023-08-31T10:27:42;0.0;0.0;0.0;0.0;;;;1.0;130.0;
78521;SPS30;67819;51.972;5.678;2023-08-31T10:30:31;0.1;0.1;0.1;0.1;;;;1.0;123.0;
78521;SPS30;67819;51.972;5.678;2023-08-31T10:35:51;0.0;0.0;0.0;0.0;;;;1.0;111.0;
78521;SPS30;67819;51.972;5.678;2023-08-31T10:38:26;0.0;0.0;0.0;0.0;;;;1.0;107.0;
78521;SPS30;67819;51.972;5.678;2023-08-31T10:41:03;0.6;0.6;0.6;0.5;;;;1.0;110.0;
78521;SPS30;67819;51.972;5.678;2023-08-31T10:43:55;0.1;0.1;0.1;0.1;;;;1.0;110.0;
78521;SPS30;67819;51.972;5.678;2023-08-31T10:46:43;0.0;0.0;0.0;0.0;;;;1.0;112.0;
78521;SPS30;67819;51.972;5.678;2023-08-31T10:49:15;0.0;0.0;0.0;0.0;;;;1.0;130.0;
78521;SPS30;67819;51.972;5.678;2023-08-31T10:51:46;0.0;0.0;0.0;0.0;;;;1.0;125.0;
78521;SPS30;67819;51.972;5.678;2023-08-31T10:54:21;0.1;0.1;0.1;0.1;;;;1.0;120.0;
78521;SPS30;67819;51.972;5.678;2023-08-31T10:56:55;0.0;0.0;0.0;0.0;;;;1.0;114.0;
78521;SPS30;67819;51.972;5.678;2023-08-31T10:59:42;0.6;0.6;0.6;0.5;;;;1.0;112.0;
78521;SPS30;67819;51.972;5.678;2023-08-31T11:02:12;0.1;0.1;0.1;0.1;;;;1.0;104.0;
78521;SPS30;67819;51.972;5.678;2023-08-31T11:04:59;0.0;0.0;0.0;0.0;;;;1.0;118.0;
78521;SPS30;67819;51.972;5.678;2023-08-31T11:07:29;1.1;1.1;1.1;1.0;;;;1.0;143.0;
78521;SPS30;67819;51.972;5.678;2023-08-31T11:10:11;0.1;0.1;0.1;0.1;;;;1.0;137.0;
78521;SPS30;67819;51.972;5.678;2023-08-31T11:12:41;0.3;0.3;0.3;0.3;;;;1.0;97.0;
78521;SPS30;67819;51.972;5.678;2023-08-31T11:15:12;0.0;0.0;0.0;0.0;;;;1.0;110.0;
78521;SPS30;67819;51.972;5.678;2023-08-31T11:17:42;0.1;0.1;0.1;0.1;;;;1.0;131.0;
78521;SPS30;67819;51.972;5.678;2023-08-31T11:20:14;0.0;0.0;0.0;0.0;;;;1.0;131.0;
78521;SPS30;67819;51.972;5.678;2023-08-31T11:22:45;0.1;0.1;0.1;0.1;;;;1.0;130.0;
78521;SPS30;67819;51.972;5.678;2023-08-31T11:25:16;0.1;0.1;0.1;0.1;;;;1.0;126.0;
78521;SPS30;67819;51.972;5.678;2023-08-31T11:27:54;4.2;4.2;4.2;4.0;;;;1.0;109.0;
78521;SPS30;67819;51.972;5.678;2023-08-31T11:30:25;0.1;0.1;0.1;0.0;;;;1.0;109.0;
78521;SPS30;67819;51.972;5.678;2023-08-31T11:32:54;1.3;1.3;1.3;1.2;;;;1.0;111.0;
78521;SPS30;67819;51.972;5.678;2023-08-31T11:35:23;0.1;0.1;0.1;0.1;;;;1.0;106.0;
78521;SPS30;67819;51.972;5.678;2023-08-31T11:37:55;0.3;0.3;0.3;0.3;;;;1.0;99.0;
78521;SPS30;67819;51.972;5.678;2023-08-31T11:40:24;0.0;0.0;0.0;0.0;;;;1.0;106.0;
78521;SPS30;67819;51.972;5.678;2023-08-31T11:42:54;0.0;0.0;0.0;0.0;;;;1.0;122.0;
78521;SPS30;67819;51.972;5.678;2023-08-31T11:45:26;0.0;0.0;0.0;0.0;;;;1.0;99.0;
78521;SPS30;67819;51.972;5.678;2023-08-31T11:47:56;0.0;0.0;0.0;0.0;;;;1.0;96.0;
78521;SPS30;67819;51.972;5.678;2023-08-31T11:50:26;0.1;0.1;0.1;0.1;;;;1.0;98.0;
78521;SPS30;67819;51.972;5.678;2023-08-31T11:52:57;0.1;0.1;0.1;0.1;;;;1.0;88.0;
78521;SPS30;67819;51.972;5.678;2023-08-31T11:55:25;0.1;0.1;0.1;0.1;;;;1.0;91.0;
78521;SPS30;67819;51.972;5.678;2023-08-31T11:57:55;0.3;0.3;0.3;0.3;;;;1.0;96.0;
78521;SPS30;67819;51.972;5.678;2023-08-31T12:00:23;0.1;0.1;0.1;0.1;;;;1.0;103.0;
78521;SPS30;67819;51.972;5.678;2023-08-31T12:02:57;0.1;0.1;0.1;0.1;;;;1.0;89.0;
78521;SPS30;67819;51.972;5.678;2023-08-31T12:05:26;0.6;0.6;0.6;0.6;;;;1.0;94.0;
78521;SPS30;67819;51.972;5.678;2023-08-31T12:07:57;0.2;0.2;0.2;0.2;;;;1.0;72.0;
78521;SPS30;67819;51.972;5.678;2023-08-31T12:10:26;0.0;0.0;0.0;0.0;;;;1.0;78.0;
78521;SPS30;67819;51.972;5.678;2023-08-31T12:12:56;0.0;0.0;0.0;0.0;;;;1.0;131.0;
78521;SPS30;67819;51.972;5.678;2023-08-31T12:15:38;0.0;0.0;0.0;0.0;;;;1.0;158.0;
78521;SPS30;67819;51.972;5.678;2023-08-31T12:18:10;0.1;0.1;0.1;0.1;;;;1.0;128.0;
78521;SPS30;67819;51.972;5.678;2023-08-31T12:20:47;0.0;0.0;0.0;0.0;;;;1.0;92.0;
78521;SPS30;67819;51.972;5.678;2023-08-31T12:23:17;0.1;0.1;0.1;0.1;;;;1.0;100.0;